Time;durP1;ratioP1;P1;durP2;ratioP2;P2;SDS_P1;SDS_P2;PMS_P1;PMS_P2;Temp;Humidity;BMP_temperature;BMP_pressure;BME280_temperature;BME280_humidity;BME280_pressure;Samples;Min_cycle;Max_cycle;Signal;HPM_P1;HPM_P2
2021/10/05 00:02:23;;;;;;;6.33;5.83;;;11.70;94.60;;;10.65;96.14;97783.09;5029589;28;20541;-76
2021/10/05 00:04:50;;;;;;;8.40;5.57;;;11.80;94.00;;;10.69;96.64;97770.81;5042901;28;20815;-75
2021/10/05 00:07:19;;;;;;;6.03;5.53;;;11.80;95.00;;;10.74;95.66;97765.56;5028811;28;20462;-76
2021/10/05 00:09:46;;;;;;;6.70;6.10;;;11.90;94.10;;;10.59;96.56;97757.78;5024511;28;20975;-75
2021/10/05 00:12:13;;;;;;;5.57;5.07;;;11.80;94.30;;;10.72;96.58;97764.13;5025941;28;20985;-76
2021/10/05 00:14:41;;;;;;;5.17;4.77;;;11.80;94.70;;;10.60;96.62;97755.94;5025154;28;20500;-75
2021/10/05 00:17:08;;;;;;;6.27;5.77;;;11.80;94.40;;;10.52;97.56;97756.19;5027394;28;20545;-75
2021/10/05 00:19:35;;;;;;;6.10;5.60;;;11.70;95.00;;;10.69;96.87;97741.09;5030622;28;20817;-76
2021/10/05 00:22:02;;;;;;;6.10;5.70;;;11.80;94.90;;;10.72;97.04;97743.34;5027059;28;20505;-75
2021/10/05 00:24:31;;;;;;;6.03;5.60;;;11.80;95.40;;;10.79;96.76;97745.16;5042627;28;20585;-76
2021/10/05 00:26:58;;;;;;;6.53;5.93;;;11.90;94.60;;;10.59;97.69;97735.38;5022669;28;20566;-74
2021/10/05 00:29:25;;;;;;;6.13;5.53;;;11.80;94.60;;;10.66;97.37;97740.72;5027812;28;20468;-75
2021/10/05 00:31:52;;;;;;;5.83;5.33;;;11.80;94.60;;;10.66;97.40;97730.72;5022187;28;20459;-76
2021/10/05 00:34:19;;;;;;;6.20;5.63;;;11.80;95.10;;;10.62;98.09;97713.31;5025149;28;20577;-76
2021/10/05 00:36:46;;;;;;;6.67;6.17;;;11.80;95.30;;;10.71;96.71;97711.97;5025865;28;20516;-78
2021/10/05 00:39:13;;;;;;;9.23;6.03;;;11.90;94.90;;;10.76;98.07;97704.00;5021729;28;20956;-77
2021/10/05 00:41:41;;;;;;;7.43;6.80;;;11.80;95.70;;;10.65;97.72;97707.44;5024421;28;20461;-78
2021/10/05 00:44:08;;;;;;;6.90;6.30;;;11.80;95.40;;;10.64;97.62;97711.22;5027288;28;20557;-78
2021/10/05 00:46:35;;;;;;;6.40;5.80;;;11.80;95.70;;;10.57;99.28;97710.47;5023231;28;20482;-76
2021/10/05 00:49:04;;;;;;;6.30;5.70;;;11.70;96.70;;;10.47;99.01;97711.78;5027242;28;20477;-76
2021/10/05 00:51:32;;;;;;;7.20;6.60;;;11.70;97.10;;;10.44;99.98;97700.59;5023557;28;20466;-76
2021/10/05 00:53:59;;;;;;;6.57;6.07;;;11.60;97.70;;;10.56;99.33;97698.00;5027442;28;20454;-77
2021/10/05 00:56:26;;;;;;;6.57;5.90;;;11.60;98.20;;;10.41;100.00;97696.47;5024999;28;20913;-78
2021/10/05 00:58:54;;;;;;;7.70;7.00;;;11.60;98.20;;;10.41;100.00;97674.88;5028583;28;20462;-77
2021/10/05 01:01:21;;;;;;;6.90;6.30;;;11.60;99.50;;;10.29;100.00;97676.63;5025269;28;20477;-77
2021/10/05 01:03:48;;;;;;;8.00;7.30;;;11.50;99.50;;;10.40;100.00;97672.34;5025276;28;20490;-76
2021/10/05 01:06:15;;;;;;;7.87;7.17;;;11.50;99.90;;;10.47;100.00;97668.56;5028601;28;20561;-75
2021/10/05 01:08:42;;;;;;;7.40;6.10;;;11.60;99.90;;;10.37;100.00;97649.31;5028336;28;20469;-76
2021/10/05 01:11:09;;;;;;;7.13;6.50;;;11.50;99.90;;;10.34;100.00;97649.75;5027349;28;20546;-75
2021/10/05 01:13:37;;;;;;;8.27;7.50;;;11.50;99.90;;;10.41;100.00;97637.06;5025826;28;20454;-76
2021/10/05 01:16:06;;;;;;;9.77;6.93;;;11.50;99.90;;;10.41;100.00;97631.66;5024564;28;20489;-75
2021/10/05 01:18:33;;;;;;;7.40;6.67;;;11.60;99.70;;;10.36;100.00;97628.75;5028745;28;20460;-75
2021/10/05 01:21:04;;;;;;;7.37;6.77;;;11.50;99.90;;;10.29;100.00;97623.41;5027892;28;20557;-75
2021/10/05 01:23:33;;;;;;;7.13;6.53;;;11.50;99.90;;;10.24;100.00;97627.88;5026518;28;20458;-75
2021/10/05 01:26:01;;;;;;;8.40;7.67;;;11.40;99.90;;;10.19;100.00;97621.25;5024589;28;20494;-75
2021/10/05 01:28:29;;;;;;;7.70;7.00;;;11.40;99.90;;;10.15;100.00;97619.19;5026812;28;20469;-75
2021/10/05 01:30:57;;;;;;;8.00;7.20;;;11.40;99.90;;;10.27;100.00;97619.31;5041824;28;20467;-74
2021/10/05 01:33:28;;;;;;;7.57;6.87;;;11.40;99.90;;;10.21;100.00;97619.13;5028845;28;20549;-75
2021/10/05 01:35:56;;;;;;;7.87;7.20;;;11.40;99.90;;;10.23;100.00;97621.63;5028919;28;20585;-75
2021/10/05 01:38:24;;;;;;;8.27;7.47;;;11.40;99.90;;;10.31;100.00;97620.50;5029955;28;20497;-75
2021/10/05 01:40:52;;;;;;;8.47;7.67;;;11.40;99.90;;;10.16;100.00;97594.69;5026409;28;20473;-75
2021/10/05 01:43:19;;;;;;;8.27;7.50;;;11.40;99.90;;;10.10;100.00;97601.00;5021173;28;20460;-75
2021/10/05 01:45:46;;;;;;;8.23;7.53;;;11.30;99.90;;;10.17;100.00;97604.44;5025065;28;20560;-76
2021/10/05 01:48:13;;;;;;;8.80;8.00;;;11.30;99.90;;;10.17;100.00;97603.63;5026850;28;20466;-77
2021/10/05 01:50:40;;;;;;;9.57;8.77;;;11.30;99.90;;;10.17;100.00;97596.34;5025740;28;20554;-76
2021/10/05 01:53:07;;;;;;;8.27;7.57;;;11.30;99.90;;;10.26;100.00;97580.66;5025863;28;20953;-76
2021/10/05 01:55:35;;;;;;;8.57;7.77;;;11.40;99.90;;;10.33;100.00;97586.00;5026150;28;20489;-76
2021/10/05 01:58:02;;;;;;;9.13;8.23;;;11.50;99.90;;;10.27;100.00;97586.91;5025667;28;20457;-75
2021/10/05 02:00:29;;;;;;;9.60;8.70;;;11.40;99.90;;;10.32;100.00;97589.75;5025933;28;20549;-75
2021/10/05 02:02:56;;;;;;;12.83;8.50;;;11.50;99.90;;;10.27;100.00;97584.22;5024978;28;20537;-75
2021/10/05 02:05:23;;;;;;;10.30;9.23;;;11.40;99.90;;;10.15;100.00;97589.50;5025094;28;20560;-77
2021/10/05 02:07:50;;;;;;;9.43;8.53;;;11.40;99.90;;;10.08;100.00;97578.78;5022552;28;20465;-75
2021/10/05 02:10:18;;;;;;;9.27;8.57;;;11.30;99.90;;;10.10;100.00;97565.06;5023486;28;20557;-75
2021/10/05 02:12:46;;;;;;;11.60;10.40;;;11.30;99.90;;;10.04;100.00;97550.59;5021380;28;20462;-75
2021/10/05 02:15:13;;;;;;;14.87;12.80;;;11.30;99.90;;;10.15;100.00;97555.25;5024807;28;20907;-75
2021/10/05 02:17:40;;;;;;;18.93;15.17;;;11.30;99.90;;;10.29;100.00;97555.91;5022457;28;20477;-75
2021/10/05 02:20:09;;;;;;;15.90;13.77;;;11.40;99.90;;;10.21;100.00;97546.25;5025634;28;20552;-75
2021/10/05 02:22:36;;;;;;;13.47;12.07;;;11.40;99.90;;;10.24;100.00;97544.97;5016293;28;20968;-75
2021/10/05 02:25:05;;;;;;;15.63;13.97;;;11.40;99.90;;;10.31;100.00;97544.91;5020606;28;20481;-74
2021/10/05 02:27:32;;;;;;;18.43;14.70;;;11.40;99.90;;;10.35;100.00;97548.78;5022625;28;20488;-74
2021/10/05 02:30:02;;;;;;;14.80;13.20;;;11.50;99.90;;;10.48;100.00;97547.88;5026122;28;20458;-74
2021/10/05 02:32:29;;;;;;;18.10;14.83;;;11.50;99.90;;;10.40;100.00;97537.31;5024744;28;20962;-75
2021/10/05 02:34:56;;;;;;;15.10;13.57;;;11.50;99.90;;;10.25;100.00;97530.44;5020286;28;20478;-75
2021/10/05 02:37:24;;;;;;;15.23;13.63;;;11.40;99.90;;;10.25;100.00;97532.31;5021835;28;20541;-75
2021/10/05 02:39:51;;;;;;;16.47;14.40;;;11.40;99.90;;;10.52;100.00;97523.91;5022931;28;20557;-75
2021/10/05 02:42:18;;;;;;;17.47;14.73;;;11.50;99.90;;;10.55;100.00;97510.78;5025339;28;20565;-75
2021/10/05 02:44:44;;;;;;;19.87;16.23;;;11.60;99.90;;;10.35;100.00;97511.84;5025080;28;20478;-77
2021/10/05 02:47:13;;;;;;;16.60;15.00;;;11.50;99.90;;;10.23;100.00;97510.09;5022574;28;20560;-75
2021/10/05 02:49:44;;;;;;;16.70;14.70;;;11.40;99.90;;;10.36;100.00;97504.53;5023352;28;20454;-74
2021/10/05 02:52:12;;;;;;;17.90;13.60;;;11.50;99.90;;;10.40;100.00;97494.97;5024563;28;20463;-77
2021/10/05 02:54:39;;;;;;;16.87;15.07;;;11.50;99.90;;;10.29;100.00;97488.41;5037654;28;20842;-76
2021/10/05 02:57:06;;;;;;;16.30;14.60;;;11.50;99.90;;;10.33;100.00;97488.78;5025370;28;20538;-75
2021/10/05 02:59:34;;;;;;;14.03;12.50;;;11.50;99.90;;;10.23;100.00;97492.03;5025728;28;20461;-75
2021/10/05 03:02:01;;;;;;;14.53;13.23;;;11.40;99.90;;;10.16;100.00;97488.56;5023157;28;20546;-75
2021/10/05 03:04:30;;;;;;;15.13;13.50;;;11.30;99.90;;;10.21;100.00;97481.44;5042260;28;20488;-77
2021/10/05 03:06:57;;;;;;;16.27;14.77;;;11.40;99.90;;;10.30;100.00;97475.75;5024668;28;20528;-75
2021/10/05 03:09:24;;;;;;;14.13;12.77;;;11.40;99.90;;;10.51;100.00;97457.44;5024486;28;20455;-75
2021/10/05 03:11:51;;;;;;;16.03;14.53;;;11.60;99.90;;;10.23;100.00;97458.81;5021901;28;20652;-76
2021/10/05 03:14:18;;;;;;;15.97;14.47;;;11.40;99.90;;;10.12;100.00;97450.44;5025191;28;20478;-76
2021/10/05 03:16:46;;;;;;;17.13;14.60;;;11.40;99.90;;;10.17;100.00;97458.66;5029485;28;20530;-75
2021/10/05 03:19:13;;;;;;;16.63;15.03;;;11.30;99.90;;;10.16;100.00;97457.03;5027507;28;20485;-75
2021/10/05 03:21:42;;;;;;;16.73;15.13;;;11.30;99.90;;;10.11;100.00;97447.94;5026337;28;20474;-74
2021/10/05 03:24:11;;;;;;;17.10;15.50;;;11.30;99.90;;;10.11;100.00;97443.38;5029577;28;20528;-74
2021/10/05 03:26:38;;;;;;;16.40;14.80;;;11.30;99.90;;;10.21;100.00;97435.56;5028491;28;20474;-74
2021/10/05 03:29:10;;;;;;;17.70;15.80;;;11.40;99.90;;;10.13;100.00;97441.28;5022712;28;20541;-74
2021/10/05 03:31:37;;;;;;;19.93;14.97;;;11.30;99.90;;;10.13;100.00;97429.66;5025485;28;20462;-73
2021/10/05 03:34:04;;;;;;;18.00;16.30;;;11.30;99.90;;;10.16;100.00;97439.97;5029564;28;20458;-74
2021/10/05 03:36:31;;;;;;;18.20;16.20;;;11.30;99.90;;;10.10;100.00;97436.34;5028048;28;21050;-74
2021/10/05 03:38:59;;;;;;;17.10;15.30;;;11.30;99.90;;;10.06;100.00;97437.81;5028422;28;20484;-74
2021/10/05 03:41:30;;;;;;;18.50;16.60;;;11.30;99.90;;;10.05;100.00;97444.28;5024162;28;20908;-75
2021/10/05 03:43:58;;;;;;;17.63;15.73;;;11.30;99.90;;;9.97;100.00;97448.09;5030460;28;21039;-74
2021/10/05 03:46:25;;;;;;;22.27;18.30;;;11.20;99.90;;;10.03;100.00;97452.63;5025479;28;20470;-75
2021/10/05 03:48:52;;;;;;;22.20;19.07;;;11.20;99.90;;;10.05;100.00;97460.47;5030190;28;20450;-76
2021/10/05 03:51:19;;;;;;;19.33;17.37;;;11.30;99.90;;;10.02;100.00;97461.75;5030672;28;20558;-76
2021/10/05 03:53:46;;;;;;;24.10;20.20;;;11.20;99.90;;;10.09;100.00;97467.09;5027003;28;20482;-74
2021/10/05 03:56:14;;;;;;;23.80;19.40;;;11.30;99.90;;;10.10;100.00;97460.63;5034336;28;20451;-75
2021/10/05 03:58:41;;;;;;;27.00;22.00;;;11.30;99.90;;;10.16;100.00;97473.22;5028929;28;20458;-75
2021/10/05 04:01:08;;;;;;;25.60;20.53;;;11.30;99.90;;;10.08;100.00;97465.41;5028355;28;21042;-76
2021/10/05 04:03:35;;;;;;;25.80;20.37;;;11.30;99.90;;;10.26;100.00;97466.47;5028067;28;20459;-75
2021/10/05 04:06:02;;;;;;;24.80;19.70;;;11.40;99.90;;;10.19;100.00;97461.16;5028193;28;20482;-75
2021/10/05 04:08:29;;;;;;;29.30;20.70;;;11.40;99.90;;;10.13;100.00;97457.47;5028142;28;20541;-76
2021/10/05 04:10:57;;;;;;;26.57;21.63;;;11.40;99.90;;;10.09;100.00;97460.84;5033282;28;20560;-76
2021/10/05 04:13:25;;;;;;;22.07;18.73;;;11.30;99.90;;;10.05;100.00;97457.78;5029214;28;20454;-76
2021/10/05 04:15:52;;;;;;;24.77;18.10;;;11.30;99.90;;;10.23;100.00;97439.91;5025829;28;20834;-76
2021/10/05 04:18:19;;;;;;;19.83;17.73;;;11.30;99.90;;;10.26;100.00;97434.06;5025340;28;20476;-76
2021/10/05 04:20:46;;;;;;;19.30;17.30;;;11.40;99.90;;;10.26;100.00;97428.66;5026086;28;20489;-76
2021/10/05 04:23:13;;;;;;;19.20;17.10;;;11.40;99.90;;;10.24;100.00;97428.09;5025938;28;20570;-75
2021/10/05 04:25:40;;;;;;;20.27;17.73;;;11.40;99.90;;;10.04;100.00;97416.47;5028243;28;21011;-75
2021/10/05 04:28:07;;;;;;;20.57;18.37;;;11.30;99.90;;;10.15;100.00;97412.19;5027293;28;21646;-75
2021/10/05 04:30:36;;;;;;;19.80;17.17;;;11.30;99.90;;;10.09;100.00;97418.50;5030459;28;20477;-76
2021/10/05 04:33:03;;;;;;;22.60;18.30;;;11.30;99.90;;;10.08;100.00;97416.81;5025413;28;20458;-75
2021/10/05 04:35:30;;;;;;;20.53;18.00;;;11.30;99.90;;;10.18;100.00;97410.91;5029366;28;20490;-76
2021/10/05 04:37:57;;;;;;;19.90;17.57;;;11.30;99.90;;;10.13;100.00;97405.34;5028900;28;20461;-76
2021/10/05 04:40:24;;;;;;;23.17;17.57;;;11.30;99.90;;;10.10;100.00;97393.16;5035660;28;20828;-76
2021/10/05 04:42:51;;;;;;;22.87;19.00;;;11.30;99.90;;;10.07;100.00;97394.44;5023515;28;20582;-77
2021/10/05 04:45:19;;;;;;;22.00;18.80;;;11.30;99.90;;;10.07;100.00;97390.88;5026339;28;20841;-79
2021/10/05 04:47:47;;;;;;;22.50;17.57;;;11.30;99.90;;;10.05;100.00;97387.59;5027005;28;20506;-73
2021/10/05 04:50:15;;;;;;;26.53;19.10;;;11.20;99.90;;;10.13;100.00;97390.00;5024986;28;20652;-76
2021/10/05 04:52:42;;;;;;;22.70;18.20;;;11.30;99.90;;;10.04;100.00;97383.25;5024068;28;20831;-76
2021/10/05 04:55:10;;;;;;;23.87;18.57;;;11.30;99.90;;;10.02;100.00;97379.97;5027400;28;20839;-77
2021/10/05 04:57:37;;;;;;;26.80;20.10;;;11.20;99.90;;;10.11;100.00;97378.59;5025612;28;20847;-76
2021/10/05 05:00:06;;;;;;;33.63;22.93;;;11.30;99.90;;;10.14;100.00;97382.69;5039242;28;20462;-75
2021/10/05 05:02:33;;;;;;;31.57;20.33;;;11.30;99.90;;;10.08;100.00;97384.44;5028008;28;20469;-76
2021/10/05 05:05:02;;;;;;;31.43;21.37;;;11.30;99.90;;;10.08;100.00;97384.44;5027909;28;20458;-76
2021/10/05 05:07:29;;;;;;;25.50;19.63;;;11.30;99.90;;;10.06;100.00;97387.38;5028066;28;20478;-75
2021/10/05 05:09:57;;;;;;;24.30;18.00;;;11.30;99.90;;;10.11;100.00;97384.00;5030225;28;20477;-76
2021/10/05 05:12:23;;;;;;;27.47;18.37;;;11.20;99.90;;;10.08;100.00;97389.84;5027109;28;20459;-75
2021/10/05 05:14:50;;;;;;;24.53;18.03;;;11.20;99.90;;;10.17;100.00;97385.78;5025229;28;20470;-76
2021/10/05 05:17:17;;;;;;;23.87;18.60;;;11.30;99.90;;;10.05;100.00;97384.91;5025037;28;20513;-74
2021/10/05 05:19:44;;;;;;;23.63;18.30;;;11.20;99.90;;;9.95;100.00;97369.25;5023572;28;20454;-77
2021/10/05 05:22:13;;;;;;;25.10;18.80;;;11.20;99.90;;;9.99;100.00;97377.72;5024589;28;20497;-75
2021/10/05 05:24:40;;;;;;;27.23;18.93;;;11.20;99.90;;;10.04;100.00;97384.09;5023161;28;20573;-75
2021/10/05 05:27:07;;;;;;;26.10;20.20;;;11.20;99.90;;;10.07;100.00;97382.78;5027545;28;20488;-75
2021/10/05 05:29:34;;;;;;;25.60;19.17;;;11.30;99.90;;;10.16;100.00;97381.44;5025533;28;20521;-77
2021/10/05 05:32:01;;;;;;;26.63;18.90;;;11.30;99.90;;;10.04;100.00;97384.09;5021673;28;21050;-77
2021/10/05 05:34:29;;;;;;;23.30;18.77;;;11.30;99.90;;;10.12;100.00;97380.25;5020327;28;20501;-76
2021/10/05 05:36:56;;;;;;;22.00;17.67;;;11.30;99.90;;;10.26;100.00;97377.38;5024808;28;20458;-80
2021/10/05 05:39:25;;;;;;;22.80;17.13;;;11.30;99.90;;;10.36;100.00;97369.53;5021670;28;20559;-80
2021/10/05 05:41:52;;;;;;;21.40;15.70;;;11.40;99.90;;;10.27;100.00;97376.31;5023926;28;20526;-77
2021/10/05 05:44:19;;;;;;;20.93;17.37;;;11.40;99.90;;;10.31;100.00;97372.09;5024616;28;20577;-78
2021/10/05 05:46:46;;;;;;;17.40;14.20;;;11.40;99.90;;;10.31;100.00;97367.53;5022979;28;20570;-80
2021/10/05 05:49:13;;;;;;;18.43;15.70;;;11.40;99.90;;;10.31;100.00;97377.50;5025111;28;20490;-80
2021/10/05 05:51:41;;;;;;;20.50;15.73;;;11.50;99.90;;;10.30;100.00;97365.06;5023392;28;20466;-77
2021/10/05 05:54:08;;;;;;;21.80;14.13;;;11.50;99.90;;;10.28;100.00;97369.88;5038368;28;20470;-78
2021/10/05 05:56:37;;;;;;;19.00;14.03;;;11.40;99.90;;;10.23;100.00;97375.09;5028502;28;20461;-78
2021/10/05 05:59:04;;;;;;;16.53;14.20;;;11.40;99.90;;;10.28;100.00;97376.06;5027200;28;20468;-77
2021/10/05 06:01:31;;;;;;;17.33;13.57;;;11.40;99.90;;;10.23;100.00;97375.09;5021476;28;20466;-78
2021/10/05 06:04:00;;;;;;;22.17;15.77;;;11.50;99.90;;;10.46;100.00;97387.91;5024811;28;21013;-78
2021/10/05 06:06:29;;;;;;;19.70;14.13;;;11.50;99.90;;;10.42;100.00;97395.66;5028353;28;20861;-79
2021/10/05 06:08:56;;;;;;;14.70;12.93;;;11.50;99.90;;;10.41;100.00;97396.72;5022486;28;20470;-78
2021/10/05 06:11:23;;;;;;;21.17;15.27;;;11.50;99.90;;;10.28;100.00;97394.16;5020445;28;20462;-71
2021/10/05 06:13:52;;;;;;;17.37;13.37;;;11.50;99.90;;;10.27;100.00;97397.91;5018086;28;21922;-70
2021/10/05 06:16:19;;;;;;;17.63;14.30;;;11.40;99.90;;;10.36;100.00;97412.72;5022590;28;20473;-70
2021/10/05 06:18:46;;;;;;;18.40;14.63;;;11.50;99.90;;;10.34;100.00;97404.88;5022223;28;20556;-70
2021/10/05 06:21:13;;;;;;;16.53;13.20;;;11.50;99.90;;;10.31;100.00;97394.53;5020122;28;20458;-71
2021/10/05 06:23:41;;;;;;;16.03;13.63;;;11.50;99.90;;;10.27;100.00;97389.81;5020708;28;20473;-71
2021/10/05 06:26:08;;;;;;;19.00;13.20;;;11.40;99.90;;;10.10;100.00;97392.31;5024040;28;20553;-71
2021/10/05 06:28:35;;;;;;;18.87;15.00;;;11.40;99.90;;;10.27;100.00;97389.81;5022543;28;20474;-70
2021/10/05 06:31:05;;;;;;;18.67;13.20;;;11.40;99.90;;;10.27;100.00;97393.31;5033104;28;20486;-71
2021/10/05 06:33:32;;;;;;;15.07;13.07;;;11.40;99.90;;;10.28;100.00;97400.38;5040575;28;21006;-72
2021/10/05 06:35:59;;;;;;;19.43;13.67;;;11.40;99.90;;;10.24;100.00;97398.38;5018075;28;20474;-72
2021/10/05 06:38:26;;;;;;;16.17;12.77;;;11.40;99.90;;;10.23;100.00;97402.09;5020879;28;21046;-72
2021/10/05 06:40:53;;;;;;;17.67;13.53;;;11.40;99.90;;;10.21;100.00;97405.84;5026037;28;20470;-73
2021/10/05 06:43:20;;;;;;;18.13;13.30;;;11.40;99.90;;;10.24;100.00;97409.19;5021995;28;20549;-71
2021/10/05 06:45:48;;;;;;;15.50;11.90;;;11.40;99.90;;;10.24;100.00;97390.28;5019920;28;20990;-72
2021/10/05 06:48:17;;;;;;;15.63;12.70;;;11.40;99.90;;;10.31;100.00;97388.31;5022097;28;20546;-72
2021/10/05 06:50:44;;;;;;;15.53;13.17;;;11.40;99.90;;;10.34;100.00;97393.22;5040725;28;20496;-72
2021/10/05 06:53:15;;;;;;;15.10;11.80;;;11.50;99.90;;;10.34;100.00;97388.69;5025693;28;20498;-73
2021/10/05 06:55:44;;;;;;;19.20;14.27;;;11.50;99.90;;;10.39;100.00;97379.88;5029276;28;20477;-74
2021/10/05 06:58:11;;;;;;;16.97;12.30;;;11.50;99.90;;;10.26;100.00;97386.28;5022126;28;20451;-75
2021/10/05 07:00:39;;;;;;;16.83;12.97;;;11.50;99.90;;;10.28;100.00;97394.16;5024168;28;20485;-75
2021/10/05 07:03:06;;;;;;;17.07;12.10;;;11.40;99.90;;;10.42;100.00;97392.13;5045188;28;20482;-75
2021/10/05 07:05:34;;;;;;;16.03;11.27;;;11.50;99.90;;;10.42;100.00;97398.34;5026808;28;20544;-74
2021/10/05 07:08:07;;;;;;;14.47;12.03;;;11.50;99.90;;;10.43;100.00;97385.66;5027918;28;20496;-73
2021/10/05 07:10:35;;;;;;;14.17;10.97;;;11.60;99.90;;;10.41;100.00;97380.50;5029478;28;20454;-74
2021/10/05 07:13:02;;;;;;;14.63;11.00;;;11.60;99.90;;;10.41;100.00;97383.22;5027277;28;20893;-74
2021/10/05 07:15:29;;;;;;;11.93;10.53;;;11.60;99.90;;;10.38;100.00;97389.00;5029320;28;20562;-74
2021/10/05 07:17:58;;;;;;;10.10;9.03;;;11.50;99.90;;;10.34;100.00;97385.13;5028714;28;20501;-75
2021/10/05 07:20:25;;;;;;;13.47;9.90;;;11.50;99.90;;;10.30;100.00;97389.34;5022693;28;20545;-74
2021/10/05 07:22:54;;;;;;;14.30;11.17;;;11.40;99.90;;;10.32;100.00;97379.16;5022255;28;21007;-75
2021/10/05 07:25:21;;;;;;;11.03;9.70;;;11.50;99.90;;;10.33;100.00;97397.00;5023463;28;21070;-75
2021/10/05 07:27:51;;;;;;;12.60;10.57;;;11.50;99.90;;;10.27;100.00;97379.03;5018367;28;20556;-76
2021/10/05 07:30:22;;;;;;;11.40;9.60;;;11.50;99.90;;;10.51;100.00;97392.63;5024927;28;20465;-75
2021/10/05 07:32:50;;;;;;;11.90;10.50;;;11.60;99.90;;;10.51;100.00;97393.44;5040096;28;20463;-75
2021/10/05 07:35:18;;;;;;;10.57;8.83;;;11.60;99.90;;;10.42;100.00;97376.75;5017916;28;20516;-74
2021/10/05 07:37:45;;;;;;;10.00;9.00;;;11.60;99.90;;;10.50;100.00;97386.41;5025215;28;20482;-75
2021/10/05 07:40:16;;;;;;;11.37;9.10;;;11.60;99.90;;;10.47;100.00;97379.56;5028109;28;20486;-75
2021/10/05 07:42:43;;;;;;;12.13;10.10;;;11.60;99.90;;;10.51;100.00;97354.81;5027061;28;20972;-75
2021/10/05 07:45:11;;;;;;;11.23;9.30;;;11.60;99.90;;;10.61;100.00;97361.31;5024335;28;20816;-75
2021/10/05 07:47:38;;;;;;;10.47;9.33;;;11.70;99.90;;;10.67;100.00;97366.84;5031197;28;20778;-73
2021/10/05 07:50:06;;;;;;;10.73;8.83;;;11.80;99.90;;;10.58;100.00;97366.34;5022156;28;20475;-73
2021/10/05 07:52:33;;;;;;;10.27;9.03;;;11.70;99.90;;;10.61;100.00;97363.19;5027374;28;20822;-74
2021/10/05 07:55:00;;;;;;;12.23;9.00;;;11.70;99.90;;;10.53;100.00;97358.09;5042446;28;21070;-73
2021/10/05 07:57:28;;;;;;;8.53;7.63;;;11.70;99.90;;;10.57;100.00;97364.69;5026978;28;20458;-74
2021/10/05 07:59:55;;;;;;;8.73;7.87;;;11.70;99.90;;;10.50;100.00;97375.59;5025007;28;20536;-74
2021/10/05 08:02:22;;;;;;;8.77;7.77;;;11.60;99.90;;;10.63;100.00;97369.16;5027452;28;20967;-71
2021/10/05 08:04:49;;;;;;;8.53;6.80;;;11.70;99.90;;;10.47;100.00;97379.56;5025543;28;20661;-66
2021/10/05 08:07:16;;;;;;;9.77;8.67;;;11.70;99.90;;;10.42;100.00;97384.03;5020398;28;20454;-65
2021/10/05 08:09:43;;;;;;;8.33;7.40;;;11.60;99.90;;;10.34;100.00;97363.53;5023813;28;21143;-65
2021/10/05 08:12:10;;;;;;;8.80;7.50;;;11.60;99.90;;;10.63;100.00;97397.00;5024290;28;20549;-65
2021/10/05 08:14:39;;;;;;;8.93;8.03;;;11.70;99.90;;;10.62;100.00;97381.03;5022480;28;20780;-66
2021/10/05 08:17:06;;;;;;;8.30;7.43;;;11.70;99.90;;;10.69;100.00;97381.75;5025568;28;20450;-68
2021/10/05 08:19:33;;;;;;;8.23;7.43;;;11.80;99.90;;;10.62;100.00;97372.91;5023043;28;20558;-70
2021/10/05 08:22:01;;;;;;;8.70;7.90;;;11.70;99.90;;;10.70;100.00;97375.31;5024602;28;20825;-71
2021/10/05 08:24:28;;;;;;;8.63;7.83;;;11.80;99.90;;;10.70;100.00;97386.09;5022419;28;20510;-80
2021/10/05 08:26:55;;;;;;;8.17;7.43;;;11.80;99.90;;;10.68;100.00;97384.69;5021583;28;20454;-69
2021/10/05 08:29:22;;;;;;;6.43;5.83;;;11.80;99.90;;;10.79;100.00;97377.66;5021903;28;20585;-69
2021/10/05 08:31:51;;;;;;;6.73;6.10;;;11.90;99.90;;;10.94;100.00;97378.03;5025647;28;20454;-68
2021/10/05 08:34:19;;;;;;;7.10;6.50;;;12.00;99.90;;;10.98;100.00;97392.72;5023442;28;20494;-69
2021/10/05 08:36:47;;;;;;;6.40;5.83;;;12.00;99.90;;;10.97;100.00;97390.25;5017710;28;20482;-70
2021/10/05 08:39:16;;;;;;;7.07;6.40;;;12.10;98.50;;;10.94;100.00;97380.72;5021741;28;20465;-70
2021/10/05 08:41:45;;;;;;;7.27;6.53;;;12.10;99.20;;;10.89;100.00;97367.09;5020326;28;20471;-70
2021/10/05 08:44:13;;;;;;;8.83;6.97;;;12.10;99.20;;;10.95;100.00;97379.66;5021824;28;20488;-69
2021/10/05 08:46:41;;;;;;;9.50;7.23;;;12.00;99.90;;;11.09;100.00;97376.75;5021407;28;20549;-69
2021/10/05 08:49:10;;;;;;;8.83;8.03;;;12.10;99.90;;;10.83;100.00;97382.38;5023229;28;20485;-65
2021/10/05 08:51:38;;;;;;;9.40;8.00;;;12.00;98.70;;;10.87;100.00;97390.84;5025434;28;20458;-65
2021/10/05 08:54:06;;;;;;;9.57;7.90;;;12.00;99.90;;;10.99;100.00;97388.94;5023145;28;21038;-65
2021/10/05 08:56:33;;;;;;;8.57;7.87;;;12.00;99.90;;;11.28;100.00;97399.91;5023436;28;20454;-75
2021/10/05 08:59:00;;;;;;;8.63;7.90;;;12.20;99.90;;;11.59;99.64;97388.94;5030939;28;20538;-76
2021/10/05 09:01:33;;;;;;;7.83;7.00;;;12.50;99.10;;;11.56;99.54;97387.53;5023166;28;20555;-73
2021/10/05 09:04:01;;;;;;;8.57;7.87;;;12.60;98.20;;;11.73;98.46;97387.63;5023156;28;20795;-76
2021/10/05 09:06:31;;;;;;;8.00;7.20;;;12.80;97.60;;;11.71;94.98;97388.94;5021531;28;20503;-77
2021/10/05 09:09:01;;;;;;;8.70;8.00;;;12.80;92.70;;;11.57;96.74;97372.94;5020631;28;20524;-76
2021/10/05 09:11:39;;;;;;;8.30;7.30;;;12.70;94.40;;;11.60;95.57;97387.91;5021804;28;20551;-82
2021/10/05 09:14:06;;;;;;;7.37;6.77;;;12.70;92.90;;;11.54;95.74;97378.84;5017345;28;20523;-75
2021/10/05 09:16:34;;;;;;;8.50;7.70;;;12.70;92.60;;;11.48;96.00;97379.81;5020272;28;20465;-75
2021/10/05 09:19:04;;;;;;;8.13;7.33;;;12.60;93.70;;;11.72;95.85;97387.88;5012216;28;21101;-75
2021/10/05 09:21:36;;;;;;;7.77;6.97;;;12.70;94.00;;;11.65;93.84;97379.06;5020551;28;21058;-75
2021/10/05 09:24:06;;;;;;;7.27;6.67;;;12.80;92.10;;;11.65;94.14;97369.06;5011937;28;20819;-73
2021/10/05 09:26:49;;;;;;;9.13;8.23;;;12.70;92.50;;;11.72;95.18;97369.75;5009250;28;20498;-74
2021/10/05 09:29:21;;;;;;;8.87;8.07;;;12.80;93.00;;;11.79;94.37;97363.38;5022610;28;20501;-74
2021/10/05 09:31:59;;;;;;;8.90;7.93;;;12.80;92.70;;;12.16;93.41;97369.28;5012446;28;20469;-75
2021/10/05 09:34:45;;;;;;;8.20;7.50;;;13.10;92.30;;;12.27;93.21;97370.31;5005536;28;20528;-74
2021/10/05 09:37:18;;;;;;;8.90;8.10;;;13.40;91.90;;;12.37;91.48;97383.25;5005099;28;20473;-75
2021/10/05 09:39:49;;;;;;;8.47;7.77;;;13.40;90.70;;;12.49;91.03;97376.91;5025762;28;20452;-74
2021/10/05 09:42:23;;;;;;;8.27;7.47;;;13.50;90.60;;;12.48;90.61;97378.81;5012023;28;20529;-75
2021/10/05 09:44:57;;;;;;;7.60;7.00;;;13.60;90.30;;;12.72;88.91;97371.38;5013951;28;20510;-75
2021/10/05 09:47:36;;;;;;;7.23;6.53;;;13.70;89.40;;;12.85;88.36;97385.69;5020289;28;20494;-75
2021/10/05 09:50:13;;;;;;;5.73;5.23;;;13.80;88.40;;;12.52;86.97;97381.88;5020280;28;20457;-75
2021/10/05 09:52:45;;;;;;;6.67;6.07;;;13.70;85.80;;;12.49;89.14;97379.63;5012162;28;20466;-74
2021/10/05 09:55:13;;;;;;;6.10;5.60;;;13.60;88.40;;;12.77;87.62;97377.94;5017018;28;20581;-74
2021/10/05 09:57:40;;;;;;;5.60;5.20;;;13.80;87.30;;;12.83;86.54;97382.41;5019093;28;21120;-75
2021/10/05 10:00:10;;;;;;;6.07;5.40;;;13.80;86.60;;;12.98;86.29;97382.66;5022568;28;20532;-74
2021/10/05 10:02:38;;;;;;;4.77;4.37;;;13.90;86.40;;;13.07;83.87;97382.22;5022434;28;20465;-73
2021/10/05 10:05:08;;;;;;;6.00;5.30;;;14.10;84.40;;;12.95;83.97;97383.13;5026430;28;21078;-74
2021/10/05 10:07:37;;;;;;;6.10;5.60;;;14.00;83.60;;;12.85;85.41;97391.91;5023501;28;20465;-74
2021/10/05 10:10:11;;;;;;;6.10;5.60;;;14.00;84.50;;;12.74;87.09;97390.91;5021215;28;20533;-76
2021/10/05 10:12:39;;;;;;;6.60;6.00;;;13.90;85.90;;;12.31;87.45;97392.31;5014279;28;20970;-75